sensor_id;sensor_type;location;lat;lon;timestamp;P1;durP1;ratioP1;P2;durP2;ratioP2
49776;SDS011;35673;51.482;7.436;2022-09-01T00:01:42;1.13;;;0.93;;
49776;SDS011;35673;51.482;7.436;2022-09-01T00:04:11;1.38;;;0.80;;
49776;SDS011;35673;51.482;7.436;2022-09-01T00:06:39;4.30;;;0.90;;
49776;SDS011;35673;51.482;7.436;2022-09-01T00:09:05;3.45;;;1.17;;
49776;SDS011;35673;51.482;7.436;2022-09-01T00:11:33;2.20;;;0.93;;
49776;SDS011;35673;51.482;7.436;2022-09-01T00:14:00;3.92;;;0.90;;
49776;SDS011;35673;51.482;7.436;2022-09-01T00:16:26;1.65;;;0.60;;
49776;SDS011;35673;51.482;7.436;2022-09-01T00:18:53;3.75;;;1.00;;
49776;SDS011;35673;51.482;7.436;2022-09-01T00:21:24;1.70;;;0.85;;
49776;SDS011;35673;51.482;7.436;2022-09-01T00:23:53;4.47;;;0.90;;
49776;SDS011;35673;51.482;7.436;2022-09-01T00:26:19;1.58;;;0.90;;
49776;SDS011;35673;51.482;7.436;2022-09-01T00:28:44;2.15;;;0.82;;
49776;SDS011;35673;51.482;7.436;2022-09-01T00:31:10;2.30;;;0.85;;
49776;SDS011;35673;51.482;7.436;2022-09-01T00:33:38;1.42;;;0.80;;
49776;SDS011;35673;51.482;7.436;2022-09-01T00:36:04;1.20;;;0.63;;
49776;SDS011;35673;51.482;7.436;2022-09-01T00:38:31;3.95;;;1.05;;
49776;SDS011;35673;51.482;7.436;2022-09-01T00:40:57;2.47;;;1.00;;
49776;SDS011;35673;51.482;7.436;2022-09-01T00:43:35;5.63;;;0.85;;
49776;SDS011;35673;51.482;7.436;2022-09-01T00:46:08;2.60;;;1.08;;
49776;SDS011;35673;51.482;7.436;2022-09-01T00:48:36;3.20;;;0.70;;
49776;SDS011;35673;51.482;7.436;2022-09-01T00:51:02;1.77;;;0.90;;
49776;SDS011;35673;51.482;7.436;2022-09-01T00:53:29;2.72;;;0.70;;
49776;SDS011;35673;51.482;7.436;2022-09-01T00:55:56;3.38;;;0.93;;
49776;SDS011;35673;51.482;7.436;2022-09-01T00:58:22;4.72;;;1.20;;
49776;SDS011;35673;51.482;7.436;2022-09-01T01:00:48;3.80;;;1.20;;
49776;SDS011;35673;51.482;7.436;2022-09-01T01:03:16;3.70;;;1.15;;
49776;SDS011;35673;51.482;7.436;2022-09-01T01:05:43;3.15;;;1.05;;
49776;SDS011;35673;51.482;7.436;2022-09-01T01:08:18;1.52;;;0.90;;
49776;SDS011;35673;51.482;7.436;2022-09-01T01:10:59;3.33;;;1.15;;
49776;SDS011;35673;51.482;7.436;2022-09-01T01:13:26;3.13;;;1.13;;
49776;SDS011;35673;51.482;7.436;2022-09-01T01:15:52;2.53;;;0.93;;
49776;SDS011;35673;51.482;7.436;2022-09-01T01:18:18;2.05;;;1.00;;
49776;SDS011;35673;51.482;7.436;2022-09-01T01:20:44;3.30;;;0.90;;
49776;SDS011;35673;51.482;7.436;2022-09-01T01:26:26;1.92;;;0.88;;
49776;SDS011;35673;51.482;7.436;2022-09-01T01:28:52;2.38;;;0.90;;
49776;SDS011;35673;51.482;7.436;2022-09-01T01:31:19;2.65;;;1.10;;
49776;SDS011;35673;51.482;7.436;2022-09-01T01:33:48;1.58;;;0.88;;
49776;SDS011;35673;51.482;7.436;2022-09-01T01:36:23;2.33;;;1.25;;
49776;SDS011;35673;51.482;7.436;2022-09-01T01:41:26;1.23;;;0.65;;
49776;SDS011;35673;51.482;7.436;2022-09-01T01:43:51;2.03;;;0.95;;
49776;SDS011;35673;51.482;7.436;2022-09-01T01:46:17;1.45;;;0.98;;
49776;SDS011;35673;51.482;7.436;2022-09-01T01:48:43;2.53;;;1.30;;
49776;SDS011;35673;51.482;7.436;2022-09-01T01:51:11;3.40;;;0.85;;
49776;SDS011;35673;51.482;7.436;2022-09-01T01:53:37;1.80;;;0.95;;
49776;SDS011;35673;51.482;7.436;2022-09-01T01:56:04;1.50;;;1.05;;
49776;SDS011;35673;51.482;7.436;2022-09-01T01:58:30;2.85;;;1.13;;
49776;SDS011;35673;51.482;7.436;2022-09-01T02:00:57;4.28;;;1.45;;
49776;SDS011;35673;51.482;7.436;2022-09-01T02:03:24;2.30;;;1.42;;
49776;SDS011;35673;51.482;7.436;2022-09-01T02:05:53;3.20;;;1.50;;
49776;SDS011;35673;51.482;7.436;2022-09-01T02:08:20;1.92;;;1.02;;
49776;SDS011;35673;51.482;7.436;2022-09-01T02:10:50;3.10;;;1.50;;
49776;SDS011;35673;51.482;7.436;2022-09-01T02:13:19;2.80;;;1.40;;
49776;SDS011;35673;51.482;7.436;2022-09-01T02:18:34;4.30;;;1.55;;
49776;SDS011;35673;51.482;7.436;2022-09-01T02:21:02;2.30;;;1.63;;
49776;SDS011;35673;51.482;7.436;2022-09-01T02:23:33;3.10;;;1.38;;
49776;SDS011;35673;51.482;7.436;2022-09-01T02:25:59;5.40;;;1.45;;
49776;SDS011;35673;51.482;7.436;2022-09-01T02:28:26;4.13;;;1.60;;
49776;SDS011;35673;51.482;7.436;2022-09-01T02:30:56;3.90;;;1.30;;
49776;SDS011;35673;51.482;7.436;2022-09-01T02:33:24;3.03;;;1.52;;
49776;SDS011;35673;51.482;7.436;2022-09-01T02:35:53;4.40;;;1.67;;
49776;SDS011;35673;51.482;7.436;2022-09-01T02:38:21;2.40;;;1.30;;
49776;SDS011;35673;51.482;7.436;2022-09-01T02:40:50;2.95;;;1.83;;
49776;SDS011;35673;51.482;7.436;2022-09-01T02:43:17;4.97;;;1.80;;
49776;SDS011;35673;51.482;7.436;2022-09-01T02:45:45;2.70;;;1.45;;
49776;SDS011;35673;51.482;7.436;2022-09-01T02:48:12;5.30;;;2.05;;
49776;SDS011;35673;51.482;7.436;2022-09-01T02:50:39;4.25;;;1.55;;
49776;SDS011;35673;51.482;7.436;2022-09-01T02:53:05;3.25;;;1.58;;
49776;SDS011;35673;51.482;7.436;2022-09-01T02:55:40;2.55;;;1.48;;
49776;SDS011;35673;51.482;7.436;2022-09-01T02:58:07;3.75;;;2.00;;
49776;SDS011;35673;51.482;7.436;2022-09-01T03:00:37;3.95;;;1.60;;
49776;SDS011;35673;51.482;7.436;2022-09-01T03:03:04;2.47;;;1.58;;
49776;SDS011;35673;51.482;7.436;2022-09-01T03:05:31;4.32;;;1.33;;
49776;SDS011;35673;51.482;7.436;2022-09-01T03:08:03;1.52;;;1.00;;
49776;SDS011;35673;51.482;7.436;2022-09-01T03:10:33;2.92;;;1.60;;
49776;SDS011;35673;51.482;7.436;2022-09-01T03:13:07;2.90;;;1.42;;
49776;SDS011;35673;51.482;7.436;2022-09-01T03:15:35;6.93;;;1.65;;
49776;SDS011;35673;51.482;7.436;2022-09-01T03:18:02;3.90;;;1.70;;
49776;SDS011;35673;51.482;7.436;2022-09-01T03:20:29;4.88;;;1.77;;
49776;SDS011;35673;51.482;7.436;2022-09-01T03:23:00;3.22;;;2.15;;
49776;SDS011;35673;51.482;7.436;2022-09-01T03:25:32;3.50;;;1.73;;
49776;SDS011;35673;51.482;7.436;2022-09-01T03:27:58;2.13;;;1.30;;
49776;SDS011;35673;51.482;7.436;2022-09-01T03:30:25;2.70;;;1.35;;
49776;SDS011;35673;51.482;7.436;2022-09-01T03:32:54;4.22;;;1.52;;
49776;SDS011;35673;51.482;7.436;2022-09-01T03:35:23;1.88;;;1.30;;
49776;SDS011;35673;51.482;7.436;2022-09-01T03:37:50;2.50;;;1.35;;
49776;SDS011;35673;51.482;7.436;2022-09-01T03:40:17;2.45;;;1.40;;
49776;SDS011;35673;51.482;7.436;2022-09-01T03:42:43;2.95;;;1.42;;
49776;SDS011;35673;51.482;7.436;2022-09-01T03:45:10;2.30;;;1.25;;
49776;SDS011;35673;51.482;7.436;2022-09-01T03:47:40;2.90;;;1.50;;
49776;SDS011;35673;51.482;7.436;2022-09-01T03:50:07;4.13;;;1.35;;
49776;SDS011;35673;51.482;7.436;2022-09-01T03:52:45;3.75;;;1.50;;
49776;SDS011;35673;51.482;7.436;2022-09-01T03:55:17;3.13;;;1.40;;
49776;SDS011;35673;51.482;7.436;2022-09-01T03:57:50;4.80;;;1.50;;
49776;SDS011;35673;51.482;7.436;2022-09-01T04:00:22;2.40;;;1.55;;
49776;SDS011;35673;51.482;7.436;2022-09-01T04:02:54;5.45;;;1.77;;
49776;SDS011;35673;51.482;7.436;2022-09-01T04:05:22;4.90;;;1.33;;
49776;SDS011;35673;51.482;7.436;2022-09-01T04:07:53;3.15;;;1.83;;
49776;SDS011;35673;51.482;7.436;2022-09-01T04:10:21;3.60;;;1.80;;
49776;SDS011;35673;51.482;7.436;2022-09-01T04:12:47;4.40;;;1.90;;
49776;SDS011;35673;51.482;7.436;2022-09-01T04:15:14;4.20;;;1.50;;
49776;SDS011;35673;51.482;7.436;2022-09-01T04:17:43;4.43;;;1.27;;
49776;SDS011;35673;51.482;7.436;2022-09-01T04:20:28;4.88;;;1.55;;
49776;SDS011;35673;51.482;7.436;2022-09-01T04:23:03;2.50;;;1.58;;
49776;SDS011;35673;51.482;7.436;2022-09-01T04:25:35;3.38;;;1.70;;
49776;SDS011;35673;51.482;7.436;2022-09-01T04:28:03;4.25;;;1.90;;
49776;SDS011;35673;51.482;7.436;2022-09-01T04:30:37;4.18;;;1.50;;
49776;SDS011;35673;51.482;7.436;2022-09-01T04:33:05;3.80;;;1.40;;
49776;SDS011;35673;51.482;7.436;2022-09-01T04:35:31;3.90;;;2.08;;
49776;SDS011;35673;51.482;7.436;2022-09-01T04:38:02;3.35;;;1.90;;
49776;SDS011;35673;51.482;7.436;2022-09-01T04:40:28;3.55;;;1.65;;
49776;SDS011;35673;51.482;7.436;2022-09-01T04:42:53;2.17;;;1.30;;
49776;SDS011;35673;51.482;7.436;2022-09-01T04:45:19;6.03;;;2.25;;
49776;SDS011;35673;51.482;7.436;2022-09-01T04:47:51;5.88;;;1.75;;
49776;SDS011;35673;51.482;7.436;2022-09-01T04:50:16;9.88;;;2.35;;
49776;SDS011;35673;51.482;7.436;2022-09-01T04:52:43;4.90;;;1.60;;
49776;SDS011;35673;51.482;7.436;2022-09-01T04:55:10;9.93;;;2.15;;
49776;SDS011;35673;51.482;7.436;2022-09-01T04:57:41;3.97;;;1.88;;
49776;SDS011;35673;51.482;7.436;2022-09-01T05:00:16;2.65;;;1.75;;
49776;SDS011;35673;51.482;7.436;2022-09-01T05:02:49;3.92;;;2.17;;
49776;SDS011;35673;51.482;7.436;2022-09-01T05:05:16;3.83;;;2.05;;
49776;SDS011;35673;51.482;7.436;2022-09-01T05:07:42;10.32;;;2.75;;
49776;SDS011;35673;51.482;7.436;2022-09-01T05:10:08;5.35;;;2.00;;
49776;SDS011;35673;51.482;7.436;2022-09-01T05:12:34;2.75;;;1.70;;
49776;SDS011;35673;51.482;7.436;2022-09-01T05:15:00;4.18;;;1.73;;
49776;SDS011;35673;51.482;7.436;2022-09-01T05:17:30;2.42;;;1.70;;
49776;SDS011;35673;51.482;7.436;2022-09-01T05:19:56;4.03;;;1.55;;
49776;SDS011;35673;51.482;7.436;2022-09-01T05:22:22;5.65;;;1.77;;
49776;SDS011;35673;51.482;7.436;2022-09-01T05:24:47;3.53;;;1.90;;
49776;SDS011;35673;51.482;7.436;2022-09-01T05:27:15;4.38;;;2.03;;
49776;SDS011;35673;51.482;7.436;2022-09-01T05:29:43;5.25;;;1.75;;
49776;SDS011;35673;51.482;7.436;2022-09-01T05:32:11;6.28;;;1.83;;
49776;SDS011;35673;51.482;7.436;2022-09-01T05:34:37;3.55;;;2.30;;
49776;SDS011;35673;51.482;7.436;2022-09-01T05:37:04;4.95;;;1.25;;
49776;SDS011;35673;51.482;7.436;2022-09-01T05:39:32;3.60;;;1.77;;
49776;SDS011;35673;51.482;7.436;2022-09-01T05:41:59;5.53;;;2.00;;
49776;SDS011;35673;51.482;7.436;2022-09-01T05:44:25;4.97;;;2.10;;
49776;SDS011;35673;51.482;7.436;2022-09-01T05:46:51;9.02;;;3.35;;
49776;SDS011;35673;51.482;7.436;2022-09-01T05:49:17;5.93;;;2.08;;
49776;SDS011;35673;51.482;7.436;2022-09-01T05:51:44;3.38;;;1.73;;
49776;SDS011;35673;51.482;7.436;2022-09-01T05:54:20;6.65;;;2.30;;
49776;SDS011;35673;51.482;7.436;2022-09-01T05:56:49;3.63;;;1.80;;
49776;SDS011;35673;51.482;7.436;2022-09-01T05:59:17;7.93;;;2.20;;
49776;SDS011;35673;51.482;7.436;2022-09-01T06:01:44;5.38;;;2.00;;
49776;SDS011;35673;51.482;7.436;2022-09-01T06:04:11;6.07;;;2.47;;
49776;SDS011;35673;51.482;7.436;2022-09-01T06:06:42;4.68;;;1.85;;
49776;SDS011;35673;51.482;7.436;2022-09-01T06:09:11;4.88;;;2.05;;
49776;SDS011;35673;51.482;7.436;2022-09-01T06:11:38;7.57;;;1.98;;
49776;SDS011;35673;51.482;7.436;2022-09-01T06:14:05;3.42;;;2.05;;
49776;SDS011;35673;51.482;7.436;2022-09-01T06:16:32;5.20;;;2.47;;
49776;SDS011;35673;51.482;7.436;2022-09-01T06:19:00;10.02;;;3.08;;
49776;SDS011;35673;51.482;7.436;2022-09-01T06:21:26;5.22;;;2.08;;
49776;SDS011;35673;51.482;7.436;2022-09-01T06:23:53;9.70;;;2.60;;
49776;SDS011;35673;51.482;7.436;2022-09-01T06:26:20;5.63;;;1.88;;
49776;SDS011;35673;51.482;7.436;2022-09-01T06:28:47;9.48;;;2.95;;
49776;SDS011;35673;51.482;7.436;2022-09-01T06:31:22;27.80;;;5.13;;
49776;SDS011;35673;51.482;7.436;2022-09-01T06:33:53;8.82;;;2.33;;
49776;SDS011;35673;51.482;7.436;2022-09-01T06:36:23;3.97;;;1.88;;
49776;SDS011;35673;51.482;7.436;2022-09-01T06:38:50;7.82;;;2.30;;
49776;SDS011;35673;51.482;7.436;2022-09-01T06:41:17;6.90;;;2.78;;
49776;SDS011;35673;51.482;7.436;2022-09-01T06:43:48;7.70;;;1.95;;
49776;SDS011;35673;51.482;7.436;2022-09-01T06:46:15;6.28;;;2.08;;
49776;SDS011;35673;51.482;7.436;2022-09-01T06:48:41;3.58;;;1.70;;
49776;SDS011;35673;51.482;7.436;2022-09-01T06:51:10;6.72;;;2.33;;
49776;SDS011;35673;51.482;7.436;2022-09-01T06:53:45;3.70;;;2.05;;
49776;SDS011;35673;51.482;7.436;2022-09-01T06:56:20;5.40;;;1.75;;
49776;SDS011;35673;51.482;7.436;2022-09-01T06:58:50;7.03;;;1.95;;
49776;SDS011;35673;51.482;7.436;2022-09-01T07:01:17;9.00;;;2.10;;
49776;SDS011;35673;51.482;7.436;2022-09-01T07:03:45;2.58;;;1.50;;
49776;SDS011;35673;51.482;7.436;2022-09-01T07:06:15;5.95;;;2.28;;
49776;SDS011;35673;51.482;7.436;2022-09-01T07:08:43;5.05;;;1.55;;
49776;SDS011;35673;51.482;7.436;2022-09-01T07:13:49;10.38;;;2.08;;
49776;SDS011;35673;51.482;7.436;2022-09-01T07:16:18;4.38;;;1.55;;
49776;SDS011;35673;51.482;7.436;2022-09-01T07:18:46;3.50;;;1.60;;
49776;SDS011;35673;51.482;7.436;2022-09-01T07:21:16;2.63;;;1.20;;
49776;SDS011;35673;51.482;7.436;2022-09-01T07:23:42;5.15;;;1.88;;
49776;SDS011;35673;51.482;7.436;2022-09-01T07:26:08;4.22;;;1.77;;
49776;SDS011;35673;51.482;7.436;2022-09-01T07:28:36;5.57;;;1.65;;
49776;SDS011;35673;51.482;7.436;2022-09-01T07:31:04;6.18;;;1.70;;
49776;SDS011;35673;51.482;7.436;2022-09-01T07:33:32;5.47;;;1.70;;
49776;SDS011;35673;51.482;7.436;2022-09-01T07:35:58;2.67;;;1.40;;
49776;SDS011;35673;51.482;7.436;2022-09-01T07:38:23;4.47;;;1.55;;
49776;SDS011;35673;51.482;7.436;2022-09-01T07:40:50;6.10;;;1.63;;
49776;SDS011;35673;51.482;7.436;2022-09-01T07:43:19;5.05;;;1.20;;
49776;SDS011;35673;51.482;7.436;2022-09-01T07:45:52;7.03;;;2.88;;
49776;SDS011;35673;51.482;7.436;2022-09-01T07:48:23;3.35;;;1.75;;
49776;SDS011;35673;51.482;7.436;2022-09-01T07:50:52;4.43;;;2.03;;
49776;SDS011;35673;51.482;7.436;2022-09-01T07:53:27;5.28;;;1.90;;
49776;SDS011;35673;51.482;7.436;2022-09-01T07:55:56;2.20;;;1.25;;
49776;SDS011;35673;51.482;7.436;2022-09-01T07:58:25;5.20;;;2.50;;
49776;SDS011;35673;51.482;7.436;2022-09-01T08:00:53;5.15;;;1.50;;
49776;SDS011;35673;51.482;7.436;2022-09-01T08:03:21;6.25;;;1.60;;
49776;SDS011;35673;51.482;7.436;2022-09-01T08:05:48;3.95;;;1.73;;
49776;SDS011;35673;51.482;7.436;2022-09-01T08:08:17;3.45;;;1.48;;
49776;SDS011;35673;51.482;7.436;2022-09-01T08:10:43;5.45;;;1.52;;
49776;SDS011;35673;51.482;7.436;2022-09-01T08:13:10;4.22;;;1.10;;
49776;SDS011;35673;51.482;7.436;2022-09-01T08:15:37;5.20;;;1.58;;
49776;SDS011;35673;51.482;7.436;2022-09-01T08:18:04;5.85;;;1.45;;
49776;SDS011;35673;51.482;7.436;2022-09-01T08:20:30;3.80;;;1.50;;
49776;SDS011;35673;51.482;7.436;2022-09-01T08:22:59;2.75;;;1.10;;
49776;SDS011;35673;51.482;7.436;2022-09-01T08:25:25;5.40;;;1.30;;
49776;SDS011;35673;51.482;7.436;2022-09-01T08:27:51;2.97;;;1.42;;
49776;SDS011;35673;51.482;7.436;2022-09-01T08:30:16;3.97;;;2.83;;
49776;SDS011;35673;51.482;7.436;2022-09-01T08:32:42;3.95;;;1.15;;
49776;SDS011;35673;51.482;7.436;2022-09-01T08:35:09;4.00;;;1.23;;
49776;SDS011;35673;51.482;7.436;2022-09-01T08:37:35;2.03;;;1.17;;
49776;SDS011;35673;51.482;7.436;2022-09-01T08:40:03;4.10;;;1.50;;
49776;SDS011;35673;51.482;7.436;2022-09-01T08:45:12;4.40;;;1.20;;
49776;SDS011;35673;51.482;7.436;2022-09-01T08:47:45;6.53;;;1.00;;
49776;SDS011;35673;51.482;7.436;2022-09-01T08:50:12;3.63;;;1.13;;
49776;SDS011;35673;51.482;7.436;2022-09-01T08:52:43;3.53;;;1.40;;
49776;SDS011;35673;51.482;7.436;2022-09-01T08:55:18;3.60;;;0.80;;
49776;SDS011;35673;51.482;7.436;2022-09-01T08:57:51;6.60;;;1.20;;
49776;SDS011;35673;51.482;7.436;2022-09-01T09:00:25;7.78;;;1.25;;
49776;SDS011;35673;51.482;7.436;2022-09-01T09:16:29;2.75;;;1.52;;
49776;SDS011;35673;51.482;7.436;2022-09-01T09:19:06;3.70;;;1.00;;
49776;SDS011;35673;51.482;7.436;2022-09-01T09:21:37;6.20;;;1.10;;
49776;SDS011;35673;51.482;7.436;2022-09-01T09:27:25;4.28;;;1.17;;
49776;SDS011;35673;51.482;7.436;2022-09-01T09:29:59;4.28;;;0.95;;
49776;SDS011;35673;51.482;7.436;2022-09-01T09:35:23;3.83;;;1.23;;
49776;SDS011;35673;51.482;7.436;2022-09-01T09:37:53;3.83;;;1.15;;
49776;SDS011;35673;51.482;7.436;2022-09-01T09:40:22;3.97;;;1.35;;
49776;SDS011;35673;51.482;7.436;2022-09-01T09:45:24;4.32;;;1.15;;
49776;SDS011;35673;51.482;7.436;2022-09-01T09:48:06;3.47;;;0.98;;
49776;SDS011;35673;51.482;7.436;2022-09-01T09:50:37;3.80;;;1.30;;
49776;SDS011;35673;51.482;7.436;2022-09-01T09:58:43;2.67;;;1.20;;
49776;SDS011;35673;51.482;7.436;2022-09-01T10:03:57;5.70;;;1.15;;
49776;SDS011;35673;51.482;7.436;2022-09-01T10:06:34;2.13;;;1.00;;
49776;SDS011;35673;51.482;7.436;2022-09-01T10:09:18;1.90;;;0.98;;
49776;SDS011;35673;51.482;7.436;2022-09-01T10:11:54;2.45;;;1.20;;
49776;SDS011;35673;51.482;7.436;2022-09-01T10:17:13;4.93;;;1.52;;
49776;SDS011;35673;51.482;7.436;2022-09-01T10:19:51;5.90;;;1.23;;
49776;SDS011;35673;51.482;7.436;2022-09-01T10:22:20;2.78;;;1.10;;
49776;SDS011;35673;51.482;7.436;2022-09-01T10:24:47;2.78;;;1.02;;
49776;SDS011;35673;51.482;7.436;2022-09-01T10:27:18;1.95;;;1.20;;
49776;SDS011;35673;51.482;7.436;2022-09-01T10:30:13;2.90;;;1.13;;
49776;SDS011;35673;51.482;7.436;2022-09-01T10:35:22;3.20;;;1.25;;
49776;SDS011;35673;51.482;7.436;2022-09-01T10:37:48;7.75;;;2.83;;
49776;SDS011;35673;51.482;7.436;2022-09-01T10:40:17;5.90;;;2.67;;
49776;SDS011;35673;51.482;7.436;2022-09-01T10:42:57;4.85;;;1.20;;
49776;SDS011;35673;51.482;7.436;2022-09-01T10:45:49;2.75;;;1.20;;
49776;SDS011;35673;51.482;7.436;2022-09-01T10:50:44;5.95;;;1.00;;
49776;SDS011;35673;51.482;7.436;2022-09-01T10:53:36;6.28;;;1.08;;
49776;SDS011;35673;51.482;7.436;2022-09-01T11:01:14;5.60;;;1.92;;
49776;SDS011;35673;51.482;7.436;2022-09-01T11:03:54;5.22;;;1.30;;
49776;SDS011;35673;51.482;7.436;2022-09-01T11:06:31;4.88;;;1.17;;
49776;SDS011;35673;51.482;7.436;2022-09-01T11:09:28;2.38;;;1.08;;
49776;SDS011;35673;51.482;7.436;2022-09-01T11:12:20;3.30;;;0.95;;
49776;SDS011;35673;51.482;7.436;2022-09-01T11:14:57;5.32;;;1.73;;
49776;SDS011;35673;51.482;7.436;2022-09-01T11:17:24;4.07;;;1.35;;
49776;SDS011;35673;51.482;7.436;2022-09-01T11:22:26;13.55;;;5.90;;
49776;SDS011;35673;51.482;7.436;2022-09-01T11:25:05;3.30;;;1.20;;
49776;SDS011;35673;51.482;7.436;2022-09-01T11:30:23;5.10;;;1.25;;
49776;SDS011;35673;51.482;7.436;2022-09-01T11:33:01;2.05;;;1.10;;
49776;SDS011;35673;51.482;7.436;2022-09-01T11:35:35;2.13;;;1.00;;
49776;SDS011;35673;51.482;7.436;2022-09-01T11:38:02;5.38;;;1.15;;
49776;SDS011;35673;51.482;7.436;2022-09-01T11:40:31;3.40;;;1.13;;
49776;SDS011;35673;51.482;7.436;2022-09-01T11:43:00;4.88;;;1.75;;
49776;SDS011;35673;51.482;7.436;2022-09-01T11:45:43;2.03;;;1.00;;
49776;SDS011;35673;51.482;7.436;2022-09-01T11:48:26;1.70;;;0.90;;
49776;SDS011;35673;51.482;7.436;2022-09-01T11:50:59;4.13;;;1.63;;
49776;SDS011;35673;51.482;7.436;2022-09-01T11:53:27;3.90;;;1.20;;
49776;SDS011;35673;51.482;7.436;2022-09-01T11:55:54;6.72;;;1.13;;
49776;SDS011;35673;51.482;7.436;2022-09-01T11:58:34;2.47;;;1.05;;
49776;SDS011;35673;51.482;7.436;2022-09-01T12:01:22;3.30;;;1.00;;
49776;SDS011;35673;51.482;7.436;2022-09-01T12:03:54;1.75;;;1.00;;
49776;SDS011;35673;51.482;7.436;2022-09-01T12:06:24;3.55;;;1.55;;
49776;SDS011;35673;51.482;7.436;2022-09-01T12:09:01;1.75;;;0.80;;
49776;SDS011;35673;51.482;7.436;2022-09-01T12:11:32;3.83;;;1.10;;
49776;SDS011;35673;51.482;7.436;2022-09-01T12:14:09;7.55;;;0.90;;
49776;SDS011;35673;51.482;7.436;2022-09-01T12:16:43;1.50;;;0.75;;
49776;SDS011;35673;51.482;7.436;2022-09-01T12:19:20;1.70;;;0.85;;
49776;SDS011;35673;51.482;7.436;2022-09-01T12:21:55;5.97;;;1.00;;
49776;SDS011;35673;51.482;7.436;2022-09-01T12:24:23;3.38;;;0.98;;
49776;SDS011;35673;51.482;7.436;2022-09-01T12:26:50;8.07;;;2.53;;
49776;SDS011;35673;51.482;7.436;2022-09-01T12:29:22;2.22;;;1.23;;
49776;SDS011;35673;51.482;7.436;2022-09-01T12:31:49;2.38;;;1.10;;
49776;SDS011;35673;51.482;7.436;2022-09-01T12:34:26;2.55;;;1.33;;
49776;SDS011;35673;51.482;7.436;2022-09-01T12:39:39;8.65;;;1.40;;
49776;SDS011;35673;51.482;7.436;2022-09-01T12:44:44;5.15;;;1.02;;
49776;SDS011;35673;51.482;7.436;2022-09-01T12:50:00;3.30;;;0.63;;
49776;SDS011;35673;51.482;7.436;2022-09-01T12:52:59;1.52;;;0.80;;
49776;SDS011;35673;51.482;7.436;2022-09-01T12:55:33;1.98;;;0.80;;
49776;SDS011;35673;51.482;7.436;2022-09-01T12:58:04;2.47;;;1.10;;
49776;SDS011;35673;51.482;7.436;2022-09-01T13:00:33;1.45;;;1.05;;
49776;SDS011;35673;51.482;7.436;2022-09-01T13:05:31;1.50;;;0.65;;
49776;SDS011;35673;51.482;7.436;2022-09-01T13:08:08;1.45;;;0.73;;
49776;SDS011;35673;51.482;7.436;2022-09-01T13:10:37;4.10;;;0.67;;
49776;SDS011;35673;51.482;7.436;2022-09-01T13:13:05;4.15;;;0.98;;
49776;SDS011;35673;51.482;7.436;2022-09-01T13:15:32;4.88;;;1.30;;
49776;SDS011;35673;51.482;7.436;2022-09-01T13:17:59;2.75;;;0.98;;
49776;SDS011;35673;51.482;7.436;2022-09-01T13:20:25;2.85;;;0.80;;
49776;SDS011;35673;51.482;7.436;2022-09-01T13:22:51;2.92;;;0.60;;
49776;SDS011;35673;51.482;7.436;2022-09-01T13:25:19;1.33;;;0.60;;
49776;SDS011;35673;51.482;7.436;2022-09-01T13:27:47;1.70;;;0.70;;
49776;SDS011;35673;51.482;7.436;2022-09-01T13:30:14;2.10;;;0.68;;
49776;SDS011;35673;51.482;7.436;2022-09-01T13:32:44;2.60;;;0.70;;
49776;SDS011;35673;51.482;7.436;2022-09-01T13:35:12;2.45;;;0.88;;
49776;SDS011;35673;51.482;7.436;2022-09-01T13:37:39;3.45;;;0.80;;
49776;SDS011;35673;51.482;7.436;2022-09-01T13:40:05;3.63;;;0.90;;
49776;SDS011;35673;51.482;7.436;2022-09-01T13:42:33;2.47;;;0.75;;
49776;SDS011;35673;51.482;7.436;2022-09-01T13:44:58;1.95;;;0.40;;
49776;SDS011;35673;51.482;7.436;2022-09-01T13:47:25;1.70;;;0.60;;
49776;SDS011;35673;51.482;7.436;2022-09-01T13:49:50;3.00;;;0.68;;
49776;SDS011;35673;51.482;7.436;2022-09-01T13:52:16;1.92;;;0.43;;
49776;SDS011;35673;51.482;7.436;2022-09-01T13:54:42;5.25;;;0.60;;
49776;SDS011;35673;51.482;7.436;2022-09-01T13:57:08;1.10;;;0.70;;
49776;SDS011;35673;51.482;7.436;2022-09-01T13:59:35;2.50;;;0.50;;
49776;SDS011;35673;51.482;7.436;2022-09-01T14:02:02;3.42;;;0.63;;
49776;SDS011;35673;51.482;7.436;2022-09-01T14:04:28;2.40;;;0.50;;
49776;SDS011;35673;51.482;7.436;2022-09-01T14:06:53;4.45;;;0.70;;
49776;SDS011;35673;51.482;7.436;2022-09-01T14:09:19;2.85;;;0.55;;
49776;SDS011;35673;51.482;7.436;2022-09-01T14:11:45;3.90;;;0.63;;
49776;SDS011;35673;51.482;7.436;2022-09-01T14:14:10;8.13;;;1.10;;
49776;SDS011;35673;51.482;7.436;2022-09-01T14:16:36;1.10;;;0.50;;
49776;SDS011;35673;51.482;7.436;2022-09-01T14:19:02;2.47;;;0.70;;
49776;SDS011;35673;51.482;7.436;2022-09-01T14:21:28;0.95;;;0.50;;
49776;SDS011;35673;51.482;7.436;2022-09-01T14:23:53;2.97;;;0.77;;
49776;SDS011;35673;51.482;7.436;2022-09-01T14:26:19;1.48;;;0.50;;
49776;SDS011;35673;51.482;7.436;2022-09-01T14:28:45;3.30;;;0.90;;
49776;SDS011;35673;51.482;7.436;2022-09-01T14:31:13;2.90;;;0.40;;
49776;SDS011;35673;51.482;7.436;2022-09-01T14:33:41;3.40;;;0.68;;
49776;SDS011;35673;51.482;7.436;2022-09-01T14:36:07;2.58;;;0.40;;
49776;SDS011;35673;51.482;7.436;2022-09-01T14:38:39;1.65;;;0.38;;
49776;SDS011;35673;51.482;7.436;2022-09-01T14:41:05;4.75;;;0.50;;
49776;SDS011;35673;51.482;7.436;2022-09-01T14:43:31;1.33;;;0.43;;
49776;SDS011;35673;51.482;7.436;2022-09-01T14:46:03;2.58;;;0.93;;
49776;SDS011;35673;51.482;7.436;2022-09-01T14:48:32;4.90;;;0.47;;
49776;SDS011;35673;51.482;7.436;2022-09-01T14:50:59;2.03;;;0.70;;
49776;SDS011;35673;51.482;7.436;2022-09-01T14:53:25;2.92;;;0.50;;
49776;SDS011;35673;51.482;7.436;2022-09-01T14:55:55;2.33;;;0.50;;
49776;SDS011;35673;51.482;7.436;2022-09-01T14:58:22;1.88;;;0.50;;
49776;SDS011;35673;51.482;7.436;2022-09-01T15:00:48;2.00;;;0.60;;
49776;SDS011;35673;51.482;7.436;2022-09-01T15:03:14;2.50;;;0.70;;
49776;SDS011;35673;51.482;7.436;2022-09-01T15:05:39;0.93;;;0.43;;
49776;SDS011;35673;51.482;7.436;2022-09-01T15:08:05;2.78;;;0.68;;
49776;SDS011;35673;51.482;7.436;2022-09-01T15:10:31;2.85;;;0.70;;
49776;SDS011;35673;51.482;7.436;2022-09-01T15:12:59;2.08;;;0.68;;
49776;SDS011;35673;51.482;7.436;2022-09-01T15:15:25;2.55;;;0.43;;
49776;SDS011;35673;51.482;7.436;2022-09-01T15:17:52;0.50;;;0.40;;
49776;SDS011;35673;51.482;7.436;2022-09-01T15:20:19;1.95;;;0.50;;
49776;SDS011;35673;51.482;7.436;2022-09-01T15:23:04;1.35;;;0.22;;
49776;SDS011;35673;51.482;7.436;2022-09-01T15:25:30;1.25;;;0.50;;
49776;SDS011;35673;51.482;7.436;2022-09-01T15:27:56;1.00;;;0.50;;
49776;SDS011;35673;51.482;7.436;2022-09-01T15:30:21;2.05;;;0.50;;
49776;SDS011;35673;51.482;7.436;2022-09-01T15:32:48;3.00;;;0.40;;
49776;SDS011;35673;51.482;7.436;2022-09-01T15:35:17;3.95;;;1.33;;
49776;SDS011;35673;51.482;7.436;2022-09-01T15:37:47;3.65;;;0.90;;
49776;SDS011;35673;51.482;7.436;2022-09-01T15:40:13;1.70;;;0.50;;
49776;SDS011;35673;51.482;7.436;2022-09-01T15:42:39;3.35;;;0.68;;
49776;SDS011;35673;51.482;7.436;2022-09-01T15:45:07;4.53;;;0.80;;
49776;SDS011;35673;51.482;7.436;2022-09-01T15:47:35;2.15;;;0.60;;
49776;SDS011;35673;51.482;7.436;2022-09-01T15:50:06;1.67;;;0.60;;
49776;SDS011;35673;51.482;7.436;2022-09-01T15:52:37;2.45;;;0.50;;
49776;SDS011;35673;51.482;7.436;2022-09-01T15:55:24;3.33;;;0.77;;
49776;SDS011;35673;51.482;7.436;2022-09-01T15:57:51;1.42;;;0.80;;
49776;SDS011;35673;51.482;7.436;2022-09-01T16:00:19;2.83;;;0.75;;
49776;SDS011;35673;51.482;7.436;2022-09-01T16:02:46;4.63;;;0.60;;
49776;SDS011;35673;51.482;7.436;2022-09-01T16:05:12;3.05;;;0.65;;
49776;SDS011;35673;51.482;7.436;2022-09-01T16:07:38;2.92;;;0.73;;
49776;SDS011;35673;51.482;7.436;2022-09-01T16:10:04;1.42;;;0.70;;
49776;SDS011;35673;51.482;7.436;2022-09-01T16:12:35;4.72;;;1.08;;
49776;SDS011;35673;51.482;7.436;2022-09-01T16:15:00;2.00;;;0.60;;